sensor_id;sensor_type;location;lat;lon;timestamp;pressure;altitude;pressure_sealevel;temperature;humidity
18697;BME280;22617;43.690;27.956;2023-12-20T00:03:44;99148.59;;;4.15;100.00
18697;BME280;22617;43.690;27.956;2023-12-20T00:08:47;99144.09;;;3.72;100.00
18697;BME280;22617;43.690;27.956;2023-12-20T00:13:51;99136.66;;;3.84;100.00
18697;BME280;22617;43.690;27.956;2023-12-20T00:18:55;99134.38;;;3.97;100.00
18697;BME280;22617;43.690;27.956;2023-12-20T00:23:59;99126.66;;;3.98;100.00
18697;BME280;22617;43.690;27.956;2023-12-20T00:29:02;99117.41;;;3.70;100.00
18697;BME280;22617;43.690;27.956;2023-12-20T00:34:07;99116.88;;;3.49;100.00
18697;BME280;22617;43.690;27.956;2023-12-20T00:39:11;99098.41;;;3.67;100.00
18697;BME280;22617;43.690;27.956;2023-12-20T00:44:14;99093.31;;;4.04;100.00
18697;BME280;22617;43.690;27.956;2023-12-20T00:49:19;99085.09;;;4.20;100.00
18697;BME280;22617;43.690;27.956;2023-12-20T00:54:23;99081.16;;;4.37;100.00
18697;BME280;22617;43.690;27.956;2023-12-20T00:59:26;99072.75;;;4.07;100.00
18697;BME280;22617;43.690;27.956;2023-12-20T01:04:31;99068.03;;;3.89;100.00
18697;BME280;22617;43.690;27.956;2023-12-20T01:09:34;99063.16;;;3.66;100.00
18697;BME280;22617;43.690;27.956;2023-12-20T01:14:38;99053.63;;;3.99;100.00
18697;BME280;22617;43.690;27.956;2023-12-20T01:19:43;99042.28;;;3.91;100.00
18697;BME280;22617;43.690;27.956;2023-12-20T01:24:47;99029.59;;;4.00;100.00
18697;BME280;22617;43.690;27.956;2023-12-20T01:29:50;99018.31;;;3.95;100.00
18697;BME280;22617;43.690;27.956;2023-12-20T01:34:55;99020.69;;;3.86;100.00
18697;BME280;22617;43.690;27.956;2023-12-20T01:40:05;99020.75;;;3.89;100.00
18697;BME280;22617;43.690;27.956;2023-12-20T01:45:09;99018.03;;;4.20;100.00
18697;BME280;22617;43.690;27.956;2023-12-20T01:50:14;99001.75;;;4.65;100.00
18697;BME280;22617;43.690;27.956;2023-12-20T01:55:18;98995.53;;;4.55;100.00
18697;BME280;22617;43.690;27.956;2023-12-20T02:00:23;98999.56;;;4.43;100.00
18697;BME280;22617;43.690;27.956;2023-12-20T02:05:31;98983.44;;;4.53;100.00
18697;BME280;22617;43.690;27.956;2023-12-20T02:10:34;98981.09;;;4.65;100.00
18697;BME280;22617;43.690;27.956;2023-12-20T02:15:38;98979.66;;;4.37;100.00
18697;BME280;22617;43.690;27.956;2023-12-20T02:20:45;98971.91;;;4.35;100.00
18697;BME280;22617;43.690;27.956;2023-12-20T02:25:49;98965.88;;;4.35;100.00
18697;BME280;22617;43.690;27.956;2023-12-20T02:30:53;98965.00;;;4.34;100.00
18697;BME280;22617;43.690;27.956;2023-12-20T02:35:56;98955.47;;;4.30;100.00
18697;BME280;22617;43.690;27.956;2023-12-20T02:41:01;98941.69;;;3.88;100.00
18697;BME280;22617;43.690;27.956;2023-12-20T02:46:05;98932.47;;;3.59;100.00
18697;BME280;22617;43.690;27.956;2023-12-20T02:51:08;98925.34;;;3.48;100.00
18697;BME280;22617;43.690;27.956;2023-12-20T02:56:13;98914.97;;;3.45;100.00
18697;BME280;22617;43.690;27.956;2023-12-20T03:01:17;98910.88;;;3.18;100.00
18697;BME280;22617;43.690;27.956;2023-12-20T03:06:21;98903.44;;;2.94;100.00
18697;BME280;22617;43.690;27.956;2023-12-20T03:11:28;98893.00;;;2.86;100.00
18697;BME280;22617;43.690;27.956;2023-12-20T03:16:31;98906.00;;;2.59;100.00
18697;BME280;22617;43.690;27.956;2023-12-20T03:21:37;98893.09;;;2.91;100.00
18697;BME280;22617;43.690;27.956;2023-12-20T03:26:42;98889.41;;;3.17;100.00
18697;BME280;22617;43.690;27.956;2023-12-20T03:31:46;98885.53;;;3.34;100.00
18697;BME280;22617;43.690;27.956;2023-12-20T03:36:49;98874.38;;;3.34;100.00
18697;BME280;22617;43.690;27.956;2023-12-20T03:41:54;98864.94;;;3.36;100.00
18697;BME280;22617;43.690;27.956;2023-12-20T03:46:57;98858.91;;;3.34;100.00
18697;BME280;22617;43.690;27.956;2023-12-20T03:52:01;98859.81;;;3.36;100.00
18697;BME280;22617;43.690;27.956;2023-12-20T03:57:06;98856.69;;;3.49;100.00
18697;BME280;22617;43.690;27.956;2023-12-20T04:02:15;98853.28;;;3.51;100.00
18697;BME280;22617;43.690;27.956;2023-12-20T04:07:20;98848.00;;;3.45;100.00
18697;BME280;22617;43.690;27.956;2023-12-20T04:12:25;98856.50;;;3.41;100.00
18697;BME280;22617;43.690;27.956;2023-12-20T04:17:28;98849.63;;;3.40;100.00
18697;BME280;22617;43.690;27.956;2023-12-20T04:22:31;98849.63;;;3.42;100.00
18697;BME280;22617;43.690;27.956;2023-12-20T04:27:36;98848.00;;;3.45;100.00
18697;BME280;22617;43.690;27.956;2023-12-20T04:32:40;98843.69;;;3.44;100.00
18697;BME280;22617;43.690;27.956;2023-12-20T04:37:43;98839.66;;;3.18;100.00
18697;BME280;22617;43.690;27.956;2023-12-20T04:42:48;98839.50;;;3.11;100.00
18697;BME280;22617;43.690;27.956;2023-12-20T04:47:52;98835.97;;;3.05;100.00
18697;BME280;22617;43.690;27.956;2023-12-20T04:52:55;98826.59;;;3.09;100.00
18697;BME280;22617;43.690;27.956;2023-12-20T04:58:00;98829.38;;;3.18;100.00
18697;BME280;22617;43.690;27.956;2023-12-20T05:03:04;98831.28;;;3.27;100.00
18697;BME280;22617;43.690;27.956;2023-12-20T05:08:08;98827.13;;;3.33;100.00
18697;BME280;22617;43.690;27.956;2023-12-20T05:13:13;98828.16;;;3.40;100.00
18697;BME280;22617;43.690;27.956;2023-12-20T05:18:16;98825.63;;;3.43;100.00
18697;BME280;22617;43.690;27.956;2023-12-20T05:23:20;98820.53;;;3.46;100.00
18697;BME280;22617;43.690;27.956;2023-12-20T05:28:24;98820.44;;;3.41;100.00
18697;BME280;22617;43.690;27.956;2023-12-20T05:33:28;98814.41;;;3.41;100.00
18697;BME280;22617;43.690;27.956;2023-12-20T05:38:32;98816.06;;;3.37;100.00
18697;BME280;22617;43.690;27.956;2023-12-20T05:43:37;98805.56;;;3.69;100.00
18697;BME280;22617;43.690;27.956;2023-12-20T05:48:40;98803.66;;;4.05;100.00
18697;BME280;22617;43.690;27.956;2023-12-20T05:53:44;98808.78;;;4.52;100.00
18697;BME280;22617;43.690;27.956;2023-12-20T05:58:49;98804.84;;;4.75;100.00
18697;BME280;22617;43.690;27.956;2023-12-20T06:03:52;98798.34;;;5.00;100.00
18697;BME280;22617;43.690;27.956;2023-12-20T06:08:56;98809.94;;;5.27;100.00
18697;BME280;22617;43.690;27.956;2023-12-20T06:14:01;98801.75;;;5.59;100.00
18697;BME280;22617;43.690;27.956;2023-12-20T06:19:04;98790.31;;;6.11;100.00
18697;BME280;22617;43.690;27.956;2023-12-20T06:24:08;98787.19;;;6.42;100.00
18697;BME280;22617;43.690;27.956;2023-12-20T06:29:13;98792.53;;;6.65;100.00
18697;BME280;22617;43.690;27.956;2023-12-20T06:34:17;98785.75;;;6.79;100.00
18697;BME280;22617;43.690;27.956;2023-12-20T06:39:20;98790.94;;;6.82;100.00
18697;BME280;22617;43.690;27.956;2023-12-20T06:44:25;98776.44;;;7.07;100.00
18697;BME280;22617;43.690;27.956;2023-12-20T06:49:28;98780.94;;;7.40;100.00
18697;BME280;22617;43.690;27.956;2023-12-20T06:54:32;98777.56;;;7.55;100.00
18697;BME280;22617;43.690;27.956;2023-12-20T06:59:40;98771.56;;;7.69;100.00
18697;BME280;22617;43.690;27.956;2023-12-20T07:04:43;98763.84;;;7.91;100.00
18697;BME280;22617;43.690;27.956;2023-12-20T07:09:47;98759.53;;;7.97;100.00
18697;BME280;22617;43.690;27.956;2023-12-20T07:14:51;98755.25;;;8.19;100.00
18697;BME280;22617;43.690;27.956;2023-12-20T07:19:55;98740.59;;;8.44;100.00
18697;BME280;22617;43.690;27.956;2023-12-20T07:24:59;98738.00;;;8.57;100.00
18697;BME280;22617;43.690;27.956;2023-12-20T07:30:06;98726.72;;;8.81;100.00
18697;BME280;22617;43.690;27.956;2023-12-20T07:35:10;98722.34;;;9.10;100.00
18697;BME280;22617;43.690;27.956;2023-12-20T07:40:14;98705.75;;;9.39;100.00
18697;BME280;22617;43.690;27.956;2023-12-20T07:45:20;98710.78;;;9.74;100.00
18697;BME280;22617;43.690;27.956;2023-12-20T07:50:24;98708.19;;;9.71;100.00
18697;BME280;22617;43.690;27.956;2023-12-20T07:55:28;98708.19;;;9.77;100.00
18697;BME280;22617;43.690;27.956;2023-12-20T08:00:33;98705.50;;;9.90;100.00
18697;BME280;22617;43.690;27.956;2023-12-20T08:05:38;98701.94;;;9.99;100.00
18697;BME280;22617;43.690;27.956;2023-12-20T08:10:42;98705.31;;;10.18;100.00
18697;BME280;22617;43.690;27.956;2023-12-20T08:15:47;98697.28;;;10.48;100.00
18697;BME280;22617;43.690;27.956;2023-12-20T08:20:50;98687.63;;;10.59;100.00
18697;BME280;22617;43.690;27.956;2023-12-20T08:25:55;98683.78;;;10.98;99.61
18697;BME280;22617;43.690;27.956;2023-12-20T08:31:00;98673.31;;;11.00;98.91
18697;BME280;22617;43.690;27.956;2023-12-20T08:36:05;98665.16;;;11.28;99.21
18697;BME280;22617;43.690;27.956;2023-12-20T08:41:08;98647.38;;;11.56;100.00
18697;BME280;22617;43.690;27.956;2023-12-20T08:46:14;98650.50;;;11.84;96.87
18697;BME280;22617;43.690;27.956;2023-12-20T08:51:18;98633.56;;;12.09;96.37
18697;BME280;22617;43.690;27.956;2023-12-20T08:56:21;98620.25;;;12.24;93.93
18697;BME280;22617;43.690;27.956;2023-12-20T09:01:26;98604.03;;;12.55;82.46
18697;BME280;22617;43.690;27.956;2023-12-20T09:06:29;98594.50;;;12.97;84.60
18697;BME280;22617;43.690;27.956;2023-12-20T09:11:33;98570.19;;;13.33;82.28
18697;BME280;22617;43.690;27.956;2023-12-20T09:16:38;98569.38;;;13.70;77.07
18697;BME280;22617;43.690;27.956;2023-12-20T09:21:41;98560.66;;;13.69;76.33
18697;BME280;22617;43.690;27.956;2023-12-20T09:26:45;98545.28;;;13.91;74.67
18697;BME280;22617;43.690;27.956;2023-12-20T09:31:49;98542.50;;;13.97;69.96
18697;BME280;22617;43.690;27.956;2023-12-20T09:36:53;98534.91;;;14.20;67.27
18697;BME280;22617;43.690;27.956;2023-12-20T09:42:01;98531.03;;;14.36;69.18
18697;BME280;22617;43.690;27.956;2023-12-20T09:47:07;98519.31;;;14.50;63.76
18697;BME280;22617;43.690;27.956;2023-12-20T09:52:11;98512.13;;;14.56;66.22
18697;BME280;22617;43.690;27.956;2023-12-20T09:57:16;98506.56;;;14.98;65.82
18697;BME280;22617;43.690;27.956;2023-12-20T10:02:23;98501.41;;;15.24;62.77
18697;BME280;22617;43.690;27.956;2023-12-20T10:07:29;98493.31;;;15.30;63.30
18697;BME280;22617;43.690;27.956;2023-12-20T10:12:32;98475.06;;;14.68;66.60
18697;BME280;22617;43.690;27.956;2023-12-20T10:17:37;98469.28;;;14.57;69.91
18697;BME280;22617;43.690;27.956;2023-12-20T10:22:41;98467.16;;;15.27;64.15
18697;BME280;22617;43.690;27.956;2023-12-20T10:27:45;98450.72;;;15.48;63.49
18697;BME280;22617;43.690;27.956;2023-12-20T10:32:50;98448.63;;;15.86;58.11
18697;BME280;22617;43.690;27.956;2023-12-20T10:37:55;98432.06;;;16.32;56.70
18697;BME280;22617;43.690;27.956;2023-12-20T10:42:59;98443.47;;;16.32;55.27
18697;BME280;22617;43.690;27.956;2023-12-20T10:48:07;98417.13;;;16.57;54.89
18697;BME280;22617;43.690;27.956;2023-12-20T10:53:12;98417.69;;;16.88;53.51
18697;BME280;22617;43.690;27.956;2023-12-20T10:58:17;98414.63;;;16.77;53.67
18697;BME280;22617;43.690;27.956;2023-12-20T11:03:26;98401.13;;;16.40;54.46
18697;BME280;22617;43.690;27.956;2023-12-20T11:08:33;98387.59;;;16.74;52.07
18697;BME280;22617;43.690;27.956;2023-12-20T11:13:44;98393.03;;;16.91;53.23
18697;BME280;22617;43.690;27.956;2023-12-20T11:18:52;98374.59;;;16.91;51.01
18697;BME280;22617;43.690;27.956;2023-12-20T11:23:56;98370.44;;;16.64;49.95
18697;BME280;22617;43.690;27.956;2023-12-20T11:29:30;98368.13;;;16.54;49.76
18697;BME280;22617;43.690;27.956;2023-12-20T11:34:35;98364.69;;;16.52;50.38
18697;BME280;22617;43.690;27.956;2023-12-20T11:39:39;98366.28;;;16.33;50.62
18697;BME280;22617;43.690;27.956;2023-12-20T11:44:43;98350.72;;;16.50;50.68
18697;BME280;22617;43.690;27.956;2023-12-20T11:49:48;98340.44;;;16.21;50.79
18697;BME280;22617;43.690;27.956;2023-12-20T11:54:53;98336.88;;;16.22;50.91
18697;BME280;22617;43.690;27.956;2023-12-20T11:59:57;98314.63;;;15.35;52.99
18697;BME280;22617;43.690;27.956;2023-12-20T12:05:02;98313.31;;;15.21;53.46
18697;BME280;22617;43.690;27.956;2023-12-20T12:10:07;98312.03;;;15.59;55.27
18697;BME280;22617;43.690;27.956;2023-12-20T12:15:11;98306.22;;;15.75;51.14
18697;BME280;22617;43.690;27.956;2023-12-20T12:20:19;98287.41;;;15.87;52.30
18697;BME280;22617;43.690;27.956;2023-12-20T12:25:23;98292.88;;;14.78;75.75
18697;BME280;22617;43.690;27.956;2023-12-20T12:30:27;98276.09;;;14.28;85.16
18697;BME280;22617;43.690;27.956;2023-12-20T12:35:41;98268.31;;;13.96;84.81
18697;BME280;22617;43.690;27.956;2023-12-20T12:40:45;98269.19;;;13.66;94.93
18697;BME280;22617;43.690;27.956;2023-12-20T12:45:49;98258.66;;;13.38;100.00
18697;BME280;22617;43.690;27.956;2023-12-20T12:50:54;98245.00;;;12.91;100.00
18697;BME280;22617;43.690;27.956;2023-12-20T12:56:01;98251.97;;;12.91;100.00
18697;BME280;22617;43.690;27.956;2023-12-20T13:01:05;98260.50;;;12.65;100.00
18697;BME280;22617;43.690;27.956;2023-12-20T13:06:10;98253.69;;;12.58;100.00
18697;BME280;22617;43.690;27.956;2023-12-20T13:11:14;98252.97;;;12.51;100.00
18697;BME280;22617;43.690;27.956;2023-12-20T13:16:17;98240.91;;;12.81;100.00
18697;BME280;22617;43.690;27.956;2023-12-20T13:21:22;98233.75;;;12.88;100.00
18697;BME280;22617;43.690;27.956;2023-12-20T13:26:25;98230.41;;;13.17;100.00
18697;BME280;22617;43.690;27.956;2023-12-20T13:31:29;98234.34;;;13.33;99.13
18697;BME280;22617;43.690;27.956;2023-12-20T13:36:34;98236.22;;;13.28;100.00
18697;BME280;22617;43.690;27.956;2023-12-20T13:41:38;98227.69;;;13.21;100.00
18697;BME280;22617;43.690;27.956;2023-12-20T13:46:42;98227.38;;;12.99;100.00
18697;BME280;22617;43.690;27.956;2023-12-20T13:51:47;98235.13;;;12.68;100.00
18697;BME280;22617;43.690;27.956;2023-12-20T13:56:50;98218.09;;;12.52;100.00
18697;BME280;22617;43.690;27.956;2023-12-20T14:02:13;98197.53;;;12.39;100.00
18697;BME280;22617;43.690;27.956;2023-12-20T14:07:19;98185.84;;;12.18;100.00
18697;BME280;22617;43.690;27.956;2023-12-20T14:12:23;98199.03;;;11.70;100.00
18697;BME280;22617;43.690;27.956;2023-12-20T14:17:27;98196.13;;;11.46;100.00
18697;BME280;22617;43.690;27.956;2023-12-20T14:22:32;98204.16;;;11.35;100.00
18697;BME280;22617;43.690;27.956;2023-12-20T14:27:35;98194.19;;;11.12;100.00
18697;BME280;22617;43.690;27.956;2023-12-20T14:32:39;98191.81;;;10.99;100.00
18697;BME280;22617;43.690;27.956;2023-12-20T14:37:43;98187.63;;;10.90;100.00
18697;BME280;22617;43.690;27.956;2023-12-20T14:42:47;98169.97;;;10.58;100.00
18697;BME280;22617;43.690;27.956;2023-12-20T14:47:51;98158.34;;;10.27;100.00
18697;BME280;22617;43.690;27.956;2023-12-20T14:52:56;98166.50;;;10.02;100.00
18697;BME280;22617;43.690;27.956;2023-12-20T14:57:59;98170.31;;;9.82;100.00
18697;BME280;22617;43.690;27.956;2023-12-20T15:03:03;98157.50;;;9.67;100.00
18697;BME280;22617;43.690;27.956;2023-12-20T15:08:09;98144.66;;;9.54;100.00
18697;BME280;22617;43.690;27.956;2023-12-20T15:13:13;98139.44;;;9.57;100.00
18697;BME280;22617;43.690;27.956;2023-12-20T15:18:16;98122.72;;;9.11;100.00
18697;BME280;22617;43.690;27.956;2023-12-20T15:23:21;98124.69;;;8.91;100.00
18697;BME280;22617;43.690;27.956;2023-12-20T15:28:29;98136.88;;;8.83;100.00
18697;BME280;22617;43.690;27.956;2023-12-20T15:33:33;98130.41;;;8.42;100.00
18697;BME280;22617;43.690;27.956;2023-12-20T15:38:38;98136.56;;;8.26;100.00
18697;BME280;22617;43.690;27.956;2023-12-20T15:43:41;98127.91;;;8.33;100.00
18697;BME280;22617;43.690;27.956;2023-12-20T15:48:45;98130.97;;;8.70;100.00
18697;BME280;22617;43.690;27.956;2023-12-20T15:53:50;98141.03;;;8.99;100.00
18697;BME280;22617;43.690;27.956;2023-12-20T15:58:53;98134.75;;;9.16;100.00
18697;BME280;22617;43.690;27.956;2023-12-20T16:03:59;98132.03;;;9.26;100.00
18697;BME280;22617;43.690;27.956;2023-12-20T16:09:05;98124.53;;;9.03;100.00
18697;BME280;22617;43.690;27.956;2023-12-20T16:14:09;98132.75;;;9.40;100.00
18697;BME280;22617;43.690;27.956;2023-12-20T16:19:16;98135.16;;;9.52;100.00
18697;BME280;22617;43.690;27.956;2023-12-20T16:24:21;98119.28;;;9.72;100.00
18697;BME280;22617;43.690;27.956;2023-12-20T16:29:25;98124.56;;;9.66;100.00
18697;BME280;22617;43.690;27.956;2023-12-20T16:34:28;98125.69;;;9.49;100.00
18697;BME280;22617;43.690;27.956;2023-12-20T16:39:33;98116.19;;;9.45;100.00
18697;BME280;22617;43.690;27.956;2023-12-20T16:44:37;98114.56;;;9.38;100.00
18697;BME280;22617;43.690;27.956;2023-12-20T16:49:40;98111.22;;;9.29;100.00
18697;BME280;22617;43.690;27.956;2023-12-20T16:54:46;98122.63;;;9.17;100.00
18697;BME280;22617;43.690;27.956;2023-12-20T16:59:50;98116.91;;;8.91;100.00
18697;BME280;22617;43.690;27.956;2023-12-20T17:04:53;98110.13;;;8.76;100.00
18697;BME280;22617;43.690;27.956;2023-12-20T17:09:58;98123.13;;;8.76;100.00
18697;BME280;22617;43.690;27.956;2023-12-20T17:15:02;98120.53;;;8.76;100.00
18697;BME280;22617;43.690;27.956;2023-12-20T17:20:08;98111.88;;;8.77;100.00
18697;BME280;22617;43.690;27.956;2023-12-20T17:25:12;98111.16;;;8.61;100.00
18697;BME280;22617;43.690;27.956;2023-12-20T17:30:17;98095.47;;;8.69;100.00
18697;BME280;22617;43.690;27.956;2023-12-20T17:35:21;98093.84;;;8.60;100.00
18697;BME280;22617;43.690;27.956;2023-12-20T17:40:26;98100.59;;;8.77;100.00
18697;BME280;22617;43.690;27.956;2023-12-20T17:45:30;98091.16;;;8.71;100.00
18697;BME280;22617;43.690;27.956;2023-12-20T17:50:33;98088.59;;;8.66;100.00
18697;BME280;22617;43.690;27.956;2023-12-20T17:55:38;98096.41;;;8.65;100.00
18697;BME280;22617;43.690;27.956;2023-12-20T18:00:42;98093.00;;;8.60;100.00
18697;BME280;22617;43.690;27.956;2023-12-20T18:05:46;98094.72;;;8.62;100.00
18697;BME280;22617;43.690;27.956;2023-12-20T18:10:51;98096.56;;;8.50;100.00
18697;BME280;22617;43.690;27.956;2023-12-20T18:15:55;98094.88;;;8.47;100.00
18697;BME280;22617;43.690;27.956;2023-12-20T18:21:00;98091.56;;;8.30;100.00
18697;BME280;22617;43.690;27.956;2023-12-20T18:26:05;98086.41;;;8.24;100.00
18697;BME280;22617;43.690;27.956;2023-12-20T18:31:09;98098.53;;;8.22;100.00
18697;BME280;22617;43.690;27.956;2023-12-20T18:36:12;98096.75;;;8.30;100.00
18697;BME280;22617;43.690;27.956;2023-12-20T18:41:18;98085.50;;;8.32;100.00
18697;BME280;22617;43.690;27.956;2023-12-20T18:46:23;98073.31;;;8.39;100.00
18697;BME280;22617;43.690;27.956;2023-12-20T18:51:27;98083.53;;;8.54;100.00
18697;BME280;22617;43.690;27.956;2023-12-20T18:56:34;98075.81;;;8.48;100.00
18697;BME280;22617;43.690;27.956;2023-12-20T19:01:40;98078.31;;;8.54;100.00
18697;BME280;22617;43.690;27.956;2023-12-20T19:06:45;98074.84;;;8.57;100.00
18697;BME280;22617;43.690;27.956;2023-12-20T19:11:50;98064.31;;;8.70;100.00
18697;BME280;22617;43.690;27.956;2023-12-20T19:16:53;98056.50;;;8.72;100.00
18697;BME280;22617;43.690;27.956;2023-12-20T19:22:00;98062.63;;;8.63;100.00
18697;BME280;22617;43.690;27.956;2023-12-20T19:27:05;98053.91;;;8.70;100.00
18697;BME280;22617;43.690;27.956;2023-12-20T19:32:09;98053.00;;;8.74;100.00
18697;BME280;22617;43.690;27.956;2023-12-20T19:37:13;98051.38;;;8.64;100.00
18697;BME280;22617;43.690;27.956;2023-12-20T19:42:18;98053.16;;;8.59;100.00
18697;BME280;22617;43.690;27.956;2023-12-20T19:47:21;98042.06;;;8.47;100.00
18697;BME280;22617;43.690;27.956;2023-12-20T19:52:25;98040.41;;;8.41;100.00
18697;BME280;22617;43.690;27.956;2023-12-20T19:57:32;98038.78;;;8.31;100.00
18697;BME280;22617;43.690;27.956;2023-12-20T20:02:35;98047.38;;;8.35;100.00
18697;BME280;22617;43.690;27.956;2023-12-20T20:07:39;98048.28;;;8.34;100.00
18697;BME280;22617;43.690;27.956;2023-12-20T20:12:44;98037.09;;;8.24;100.00
18697;BME280;22617;43.690;27.956;2023-12-20T20:17:48;98040.56;;;8.23;100.00
18697;BME280;22617;43.690;27.956;2023-12-20T20:22:51;98040.63;;;8.20;100.00
18697;BME280;22617;43.690;27.956;2023-12-20T20:27:56;98044.09;;;8.16;100.00
18697;BME280;22617;43.690;27.956;2023-12-20T20:33:00;98030.34;;;8.09;100.00
18697;BME280;22617;43.690;27.956;2023-12-20T20:38:05;98026.88;;;8.10;100.00
18697;BME280;22617;43.690;27.956;2023-12-20T20:43:10;98021.63;;;8.13;100.00
18697;BME280;22617;43.690;27.956;2023-12-20T20:48:13;98034.66;;;8.06;100.00
18697;BME280;22617;43.690;27.956;2023-12-20T20:53:31;98033.88;;;8.01;100.00
18697;BME280;22617;43.690;27.956;2023-12-20T20:58:35;98033.94;;;7.92;100.00
18697;BME280;22617;43.690;27.956;2023-12-20T21:03:39;98025.41;;;7.77;100.00
18697;BME280;22617;43.690;27.956;2023-12-20T21:08:42;98020.31;;;7.71;100.00
18697;BME280;22617;43.690;27.956;2023-12-20T21:13:47;98019.50;;;7.65;100.00
18697;BME280;22617;43.690;27.956;2023-12-20T21:18:52;98023.03;;;7.58;100.00
18697;BME280;22617;43.690;27.956;2023-12-20T21:23:55;98017.00;;;7.53;100.00
18697;BME280;22617;43.690;27.956;2023-12-20T21:29:00;98007.63;;;7.38;100.00
18697;BME280;22617;43.690;27.956;2023-12-20T21:34:03;98001.53;;;7.39;100.00
18697;BME280;22617;43.690;27.956;2023-12-20T21:39:07;97998.09;;;7.43;100.00
18697;BME280;22617;43.690;27.956;2023-12-20T21:44:13;97991.09;;;7.51;100.00
18697;BME280;22617;43.690;27.956;2023-12-20T21:49:17;97982.44;;;7.52;100.00
18697;BME280;22617;43.690;27.956;2023-12-20T21:54:20;97976.34;;;7.58;100.00
18697;BME280;22617;43.690;27.956;2023-12-20T21:59:25;97984.06;;;7.65;100.00
18697;BME280;22617;43.690;27.956;2023-12-20T22:04:28;97981.41;;;7.71;100.00
18697;BME280;22617;43.690;27.956;2023-12-20T22:09:32;97990.97;;;7.66;100.00
18697;BME280;22617;43.690;27.956;2023-12-20T22:14:37;97979.66;;;7.75;100.00
18697;BME280;22617;43.690;27.956;2023-12-20T22:19:40;97971.91;;;7.69;100.00
18697;BME280;22617;43.690;27.956;2023-12-20T22:24:44;97972.81;;;7.66;100.00
18697;BME280;22617;43.690;27.956;2023-12-20T22:29:48;97959.94;;;7.54;100.00
18697;BME280;22617;43.690;27.956;2023-12-20T22:34:52;97951.34;;;7.51;100.00
18697;BME280;22617;43.690;27.956;2023-12-20T22:39:57;97949.66;;;7.43;100.00
18697;BME280;22617;43.690;27.956;2023-12-20T22:45:02;97951.50;;;7.29;100.00
18697;BME280;22617;43.690;27.956;2023-12-20T22:50:06;97944.75;;;7.13;100.00
18697;BME280;22617;43.690;27.956;2023-12-20T22:55:10;97937.03;;;7.04;100.00
18697;BME280;22617;43.690;27.956;2023-12-20T23:00:16;97945.69;;;7.05;100.00
18697;BME280;22617;43.690;27.956;2023-12-20T23:05:23;97933.75;;;6.81;100.00
18697;BME280;22617;43.690;27.956;2023-12-20T23:10:27;97934.69;;;6.68;100.00
18697;BME280;22617;43.690;27.956;2023-12-20T23:15:33;97930.34;;;6.73;100.00
18697;BME280;22617;43.690;27.956;2023-12-20T23:20:37;97923.38;;;6.84;100.00
18697;BME280;22617;43.690;27.956;2023-12-20T23:25:40;97924.28;;;6.72;100.00
18697;BME280;22617;43.690;27.956;2023-12-20T23:30:47;97926.06;;;6.70;100.00
18697;BME280;22617;43.690;27.956;2023-12-20T23:35:51;97926.06;;;6.64;100.00
18697;BME280;22617;43.690;27.956;2023-12-20T23:40:54;97928.88;;;6.28;100.00
18697;BME280;22617;43.690;27.956;2023-12-20T23:45:59;97930.72;;;5.89;100.00
18697;BME280;22617;43.690;27.956;2023-12-20T23:51:03;97928.13;;;5.71;100.00
18697;BME280;22617;43.690;27.956;2023-12-20T23:56:07;97917.00;;;5.55;100.00
